Time;durP1;ratioP1;P1;durP2;ratioP2;P2;SDS_P1;SDS_P2;PMS_P1;PMS_P2;Temp;Humidity;BMP_temperature;BMP_pressure;BME280_temperature;BME280_humidity;BME280_pressure;Samples;Min_cycle;Max_cycle;Signal;HPM_P1;HPM_P2
2022/06/07 00:01:59;;;;;;;2.03;1.93;;;15.00;99.90;;;;;;7366711;19;20540;-75
2022/06/07 00:04:24;;;;;;;2.30;2.10;;;15.00;99.90;;;;;;7373819;19;20871;-74
2022/06/07 00:06:50;;;;;;;1.80;1.70;;;14.90;99.90;;;;;;7370521;19;20340;-74
2022/06/07 00:09:15;;;;;;;2.20;2.00;;;14.90;99.90;;;;;;7372667;19;20344;-74
2022/06/07 00:11:41;;;;;;;2.20;2.03;;;15.00;99.90;;;;;;7369553;19;20771;-74
2022/06/07 00:14:07;;;;;;;2.30;2.17;;;14.90;99.90;;;;;;7371207;19;20353;-75
2022/06/07 00:16:32;;;;;;;2.57;2.37;;;14.90;99.90;;;;;;7369112;19;20340;-74
2022/06/07 00:18:58;;;;;;;2.40;2.20;;;14.80;99.90;;;;;;7373557;19;21264;-73
2022/06/07 00:21:23;;;;;;;2.50;2.30;;;14.80;99.90;;;;;;7368529;19;20367;-74
2022/06/07 00:23:49;;;;;;;2.17;2.07;;;14.80;99.90;;;;;;7368691;19;20340;-74
2022/06/07 00:26:14;;;;;;;2.53;2.33;;;14.70;99.90;;;;;;7371877;19;20708;-74
2022/06/07 00:28:40;;;;;;;3.80;2.20;;;14.60;99.90;;;;;;7372399;19;20347;-74
2022/06/07 00:31:06;;;;;;;2.00;1.90;;;14.60;99.90;;;;;;7365793;19;20351;-74
2022/06/07 00:33:31;;;;;;;2.38;2.20;;;14.50;99.90;;;;;;7371433;19;20345;-74
2022/06/07 00:35:57;;;;;;;2.70;2.50;;;14.50;99.90;;;;;;7370272;19;20357;-75
2022/06/07 00:38:22;;;;;;;2.58;2.38;;;14.50;99.90;;;;;;7374390;19;20345;-74
2022/06/07 00:40:48;;;;;;;2.47;2.27;;;14.50;99.90;;;;;;7376306;19;20831;-74
2022/06/07 00:43:14;;;;;;;2.50;2.30;;;14.40;99.90;;;;;;7379743;19;20420;-74
2022/06/07 00:45:39;;;;;;;2.10;2.00;;;14.40;99.90;;;;;;7378883;19;20372;-74
2022/06/07 00:48:05;;;;;;;2.27;2.07;;;14.50;99.90;;;;;;7379211;19;20352;-74
2022/06/07 00:50:47;;;;;;;2.55;2.35;;;14.40;99.90;;;;;;7376055;19;20316;-74
2022/06/07 00:53:21;;;;;;;2.33;2.13;;;14.40;99.90;;;;;;7376797;19;20344;-74
2022/06/07 00:55:48;;;;;;;2.38;2.28;;;14.40;99.90;;;;;;7377559;19;20907;-74
2022/06/07 00:58:13;;;;;;;2.70;2.50;;;14.40;99.90;;;;;;7379769;19;20399;-74
2022/06/07 01:00:43;;;;;;;2.60;2.40;;;14.40;99.90;;;;;;7373729;19;20948;-74
2022/06/07 01:03:09;;;;;;;3.40;2.50;;;14.40;99.90;;;;;;7374515;19;20439;-74
2022/06/07 01:05:36;;;;;;;2.30;2.10;;;14.40;99.90;;;;;;7376972;19;20380;-74
2022/06/07 01:10:54;;;;;;;2.45;2.30;;;14.40;99.90;;;;;;7272206;19;2004539;-74
2022/06/07 01:13:26;;;;;;;2.35;2.20;;;14.30;99.90;;;;;;7377168;19;20348;-74
2022/06/07 01:15:59;;;;;;;2.55;2.35;;;14.30;99.90;;;;;;7376334;19;20937;-74
2022/06/07 01:18:25;;;;;;;3.20;2.30;;;14.30;99.90;;;;;;7377109;19;20432;-73
2022/06/07 01:21:21;;;;;;;2.17;2.08;;;14.30;99.90;;;;;;7374368;19;20411;-73
2022/06/07 01:23:48;;;;;;;2.38;2.17;;;14.30;99.90;;;;;;7272260;19;2004422;-74
2022/06/07 01:26:16;;;;;;;2.03;1.77;;;14.40;99.90;;;;;;7375572;19;20336;-74
2022/06/07 01:28:41;;;;;;;1.95;1.85;;;14.30;99.90;;;;;;7379949;19;21213;-74
2022/06/07 01:31:08;;;;;;;1.85;1.75;;;14.30;99.90;;;;;;7372614;19;20340;-74
2022/06/07 01:33:34;;;;;;;2.38;2.17;;;14.40;99.90;;;;;;7377786;19;20336;-76
2022/06/07 01:36:08;;;;;;;2.10;2.00;;;14.40;99.90;;;;;;7376926;19;20870;-74
2022/06/07 01:38:35;;;;;;;2.40;2.20;;;14.40;99.90;;;;;;7378848;19;20396;-74
2022/06/07 01:43:45;;;;;;;2.97;2.38;;;14.50;99.90;;;;;;7377072;19;20352;-74
2022/06/07 01:46:11;;;;;;;2.33;2.13;;;14.50;99.90;;;;;;7376196;19;20384;-74
2022/06/07 01:48:37;;;;;;;2.15;1.95;;;14.50;99.90;;;;;;7376611;19;20363;-74
2022/06/07 01:51:03;;;;;;;2.40;2.20;;;14.60;99.90;;;;;;7374059;19;21215;-74
2022/06/07 01:53:30;;;;;;;2.70;2.50;;;14.50;99.90;;;;;;7376385;19;20410;-74
2022/06/07 01:56:05;;;;;;;2.33;2.13;;;14.40;99.90;;;;;;7371068;19;20483;-73
2022/06/07 01:58:31;;;;;;;2.53;2.33;;;14.50;99.90;;;;;;7377660;19;20349;-75
2022/06/07 02:00:57;;;;;;;3.10;2.70;;;14.50;99.90;;;;;;7372613;19;20352;-73
2022/06/07 02:03:23;;;;;;;2.70;2.50;;;14.50;99.90;;;;;;7375183;19;20308;-74
2022/06/07 02:05:59;;;;;;;2.10;2.00;;;14.50;99.90;;;;;;7376202;19;20345;-74
2022/06/07 02:08:26;;;;;;;2.80;2.60;;;14.40;99.90;;;;;;7374462;19;20360;-74
2022/06/07 02:10:53;;;;;;;2.30;2.10;;;14.40;99.90;;;;;;7371966;19;20345;-74
2022/06/07 02:13:19;;;;;;;2.37;2.17;;;14.40;99.90;;;;;;7376039;19;20320;-74
2022/06/07 02:15:46;;;;;;;2.40;2.20;;;14.40;99.90;;;;;;7374122;19;20349;-74
2022/06/07 02:18:11;;;;;;;3.20;2.05;;;14.40;99.90;;;;;;7374202;19;20366;-74
2022/06/07 02:20:50;;;;;;;3.40;2.28;;;14.40;99.90;;;;;;7374119;19;20348;-74
2022/06/07 02:23:15;;;;;;;2.47;2.27;;;14.40;99.90;;;;;;7373420;19;20312;-74
2022/06/07 02:25:47;;;;;;;2.50;2.30;;;14.50;99.90;;;;;;7372366;19;20737;-74
2022/06/07 02:28:13;;;;;;;1.90;1.80;;;14.50;99.90;;;;;;7372556;19;20345;-74
2022/06/07 02:30:39;;;;;;;2.30;2.20;;;14.60;99.90;;;;;;7374898;19;20678;-74
2022/06/07 02:33:05;;;;;;;3.17;2.92;;;14.50;99.90;;;;;;7372770;19;20341;-74
2022/06/07 02:35:30;;;;;;;2.80;2.60;;;14.50;99.90;;;;;;7372625;19;20807;-74
2022/06/07 02:37:56;;;;;;;3.30;3.00;;;14.50;99.90;;;;;;7373794;19;20372;-74
2022/06/07 02:40:22;;;;;;;2.67;2.47;;;14.40;99.90;;;;;;7375579;19;20367;-74
2022/06/07 02:42:47;;;;;;;3.03;2.83;;;14.40;99.90;;;;;;7373440;19;20349;-74
2022/06/07 02:45:13;;;;;;;2.78;2.58;;;14.40;99.90;;;;;;7372396;19;20357;-74
2022/06/07 02:47:39;;;;;;;2.87;2.57;;;14.30;99.90;;;;;;7370723;19;20348;-74
2022/06/07 02:50:10;;;;;;;3.25;2.40;;;14.20;99.90;;;;;;7374316;19;20445;-74
2022/06/07 02:52:39;;;;;;;3.20;2.90;;;14.20;99.90;;;;;;7369410;19;20482;-73
2022/06/07 02:55:21;;;;;;;3.22;2.92;;;14.20;99.90;;;;;;7269465;19;2004547;-74
2022/06/07 02:57:49;;;;;;;3.17;2.87;;;14.10;99.90;;;;;;7371346;19;20362;-74
2022/06/07 03:00:18;;;;;;;2.77;2.57;;;14.00;99.90;;;;;;7371124;19;20360;-74
2022/06/07 03:02:44;;;;;;;2.60;2.33;;;14.00;99.90;;;;;;7370620;19;20405;-74
2022/06/07 03:05:11;;;;;;;3.15;2.88;;;14.00;99.90;;;;;;7372796;19;20977;-74
2022/06/07 03:07:38;;;;;;;3.07;2.80;;;14.10;99.90;;;;;;7370142;19;20471;-74
2022/06/07 03:10:04;;;;;;;3.38;3.08;;;14.00;99.90;;;;;;7373353;19;21143;-73
2022/06/07 03:12:32;;;;;;;2.88;2.65;;;14.10;99.90;;;;;;7371595;19;20320;-73
2022/06/07 03:14:59;;;;;;;2.75;2.55;;;14.00;99.90;;;;;;7374235;19;20340;-74
2022/06/07 03:17:24;;;;;;;3.17;2.85;;;14.00;99.90;;;;;;7371509;19;20329;-74
2022/06/07 03:19:50;;;;;;;3.55;3.03;;;14.00;99.90;;;;;;7375700;19;20348;-73
2022/06/07 03:22:17;;;;;;;2.75;2.47;;;14.00;99.90;;;;;;7370901;19;20908;-73
2022/06/07 03:24:43;;;;;;;2.47;2.28;;;14.00;99.90;;;;;;7374629;19;20308;-74
2022/06/07 03:27:10;;;;;;;3.20;2.90;;;14.00;99.90;;;;;;7370162;19;20773;-74
2022/06/07 03:29:37;;;;;;;2.47;2.30;;;14.10;99.90;;;;;;7372681;19;20324;-74
2022/06/07 03:32:03;;;;;;;3.45;2.80;;;14.20;99.90;;;;;;7373388;19;20384;-74
2022/06/07 03:34:29;;;;;;;3.17;2.88;;;14.30;99.90;;;;;;7374568;19;20333;-74
2022/06/07 03:36:55;;;;;;;2.92;2.72;;;14.40;99.90;;;;;;7369396;19;20435;-74
2022/06/07 03:39:21;;;;;;;2.60;2.40;;;14.50;99.90;;;;;;7375695;19;21022;-74
2022/06/07 03:41:54;;;;;;;2.65;2.45;;;14.60;99.90;;;;;;7369335;19;20336;-74
2022/06/07 03:44:24;;;;;;;3.30;3.00;;;14.70;99.90;;;;;;7350461;19;20337;-74
2022/06/07 03:46:56;;;;;;;3.28;2.97;;;14.80;99.90;;;;;;7370026;19;20678;-74
2022/06/07 03:49:23;;;;;;;2.80;2.60;;;14.80;99.90;;;;;;7371536;19;20319;-74
2022/06/07 03:51:51;;;;;;;3.10;2.90;;;14.90;99.90;;;;;;7368534;19;20879;-74
2022/06/07 03:54:17;;;;;;;3.10;2.80;;;15.00;99.90;;;;;;7374508;19;20437;-75
2022/06/07 03:56:46;;;;;;;2.70;2.45;;;15.00;99.90;;;;;;7374591;19;20323;-75
2022/06/07 03:59:12;;;;;;;3.10;2.90;;;15.00;99.90;;;;;;7376656;19;20424;-75
2022/06/07 04:01:38;;;;;;;3.50;3.17;;;15.10;99.90;;;;;;7369405;19;20457;-75
2022/06/07 04:04:06;;;;;;;3.30;2.55;;;15.30;99.90;;;;;;7377862;19;20328;-75
2022/06/07 04:06:36;;;;;;;2.83;2.63;;;15.40;99.90;;;;;;7374719;19;20432;-76
2022/06/07 04:09:09;;;;;;;3.22;2.92;;;15.60;99.90;;;;;;7375732;19;20372;-76
2022/06/07 04:11:39;;;;;;;2.45;2.30;;;15.70;99.90;;;;;;7371144;19;20401;-76
2022/06/07 04:14:04;;;;;;;2.50;2.37;;;15.90;99.90;;;;;;7372162;19;21229;-76
2022/06/07 04:16:31;;;;;;;2.35;2.15;;;16.00;99.90;;;;;;7374544;19;20364;-75
2022/06/07 04:19:03;;;;;;;2.55;2.35;;;16.00;99.90;;;;;;7376559;19;20381;-76
2022/06/07 04:21:28;;;;;;;2.93;2.70;;;16.10;99.90;;;;;;7371973;19;20312;-75
2022/06/07 04:24:07;;;;;;;2.45;2.25;;;16.20;99.90;;;;;;7275101;19;2004493;-75
2022/06/07 04:26:36;;;;;;;1.95;1.85;;;16.30;99.90;;;;;;7370545;19;20400;-75
2022/06/07 04:29:02;;;;;;;2.70;2.50;;;16.40;99.90;;;;;;7372020;19;20368;-75
2022/06/07 04:31:30;;;;;;;2.80;2.60;;;16.50;99.90;;;;;;7368636;19;20320;-75
2022/06/07 04:34:04;;;;;;;2.25;2.15;;;16.60;99.90;;;;;;7372744;19;21019;-75
2022/06/07 04:36:30;;;;;;;2.90;2.70;;;16.70;99.90;;;;;;7369814;19;20423;-75
2022/06/07 04:38:59;;;;;;;2.70;2.50;;;16.80;99.90;;;;;;7370789;19;20341;-75
2022/06/07 04:41:33;;;;;;;2.28;2.08;;;16.90;99.90;;;;;;7367601;19;20377;-75
2022/06/07 04:44:03;;;;;;;2.50;2.30;;;16.90;99.90;;;;;;7370125;19;20367;-74
2022/06/07 04:46:28;;;;;;;2.53;2.33;;;17.10;99.90;;;;;;7368437;19;20822;-74
2022/06/07 04:48:59;;;;;;;2.85;2.63;;;17.20;99.90;;;;;;7373723;19;20382;-74
2022/06/07 04:51:32;;;;;;;3.70;3.40;;;17.20;99.90;;;;;;7370620;19;20351;-75
2022/06/07 04:54:06;;;;;;;3.20;2.90;;;17.30;99.90;;;;;;7371140;19;20358;-75
2022/06/07 04:56:37;;;;;;;3.75;3.45;;;17.40;99.90;;;;;;7373602;19;20863;-75
2022/06/07 04:59:04;;;;;;;3.78;3.28;;;17.50;99.90;;;;;;7371909;19;20363;-75
2022/06/07 05:01:32;;;;;;;5.60;3.42;;;17.60;99.90;;;;;;7368024;19;20363;-75
2022/06/07 05:04:04;;;;;;;3.10;2.90;;;17.70;99.90;;;;;;7368828;19;21277;-74
2022/06/07 05:06:35;;;;;;;3.60;3.30;;;17.80;99.90;;;;;;7367149;19;20316;-75
2022/06/07 05:09:17;;;;;;;3.50;3.20;;;17.90;99.90;;;;;;7269868;19;2004353;-75
2022/06/07 05:11:47;;;;;;;3.55;3.25;;;17.90;99.90;;;;;;7365723;19;20321;-75
2022/06/07 05:14:14;;;;;;;3.30;3.00;;;17.90;99.90;;;;;;7372257;19;20907;-75
2022/06/07 05:16:44;;;;;;;3.70;3.40;;;18.00;99.90;;;;;;7368067;19;20337;-75
2022/06/07 05:19:14;;;;;;;3.90;3.60;;;18.00;99.90;;;;;;7372620;19;20341;-76
2022/06/07 05:21:42;;;;;;;3.75;3.45;;;18.20;99.90;;;;;;7366292;19;20344;-76
2022/06/07 05:24:08;;;;;;;3.42;3.13;;;18.20;99.90;;;;;;7370771;19;20412;-76
2022/06/07 05:26:44;;;;;;;5.63;3.60;;;18.20;99.90;;;;;;7375918;19;20312;-76
2022/06/07 05:29:18;;;;;;;4.80;3.60;;;18.20;99.90;;;;;;7276199;19;2004290;-77
2022/06/07 05:31:44;;;;;;;3.28;3.08;;;18.10;99.90;;;;;;7373153;19;20304;-76
2022/06/07 05:34:10;;;;;;;3.90;3.60;;;18.20;99.90;;;;;;7376606;19;20376;-76
2022/06/07 05:36:38;;;;;;;3.85;3.42;;;18.20;99.90;;;;;;7377406;19;20990;-76
2022/06/07 05:39:06;;;;;;;3.50;3.20;;;18.30;99.90;;;;;;7382087;19;20325;-76
2022/06/07 05:41:33;;;;;;;4.00;3.70;;;18.40;99.90;;;;;;7376131;19;20387;-76
2022/06/07 05:44:06;;;;;;;3.57;3.13;;;18.30;99.90;;;;;;7379460;19;21115;-76
2022/06/07 05:46:36;;;;;;;4.05;3.67;;;18.50;99.90;;;;;;7380248;19;20947;-76
2022/06/07 05:49:28;;;;;;;4.00;3.60;;;18.50;99.90;;;;;;7381701;19;20346;-76
2022/06/07 05:52:00;;;;;;;4.47;4.07;;;18.60;99.90;;;;;;7376163;19;20341;-76
2022/06/07 05:54:27;;;;;;;3.67;3.38;;;18.70;99.90;;;;;;7380221;19;20976;-76
2022/06/07 05:56:53;;;;;;;4.07;3.67;;;18.80;99.90;;;;;;7378047;19;20336;-76
2022/06/07 05:59:19;;;;;;;4.50;4.10;;;19.10;99.90;;;;;;7378831;19;20336;-76
2022/06/07 06:01:45;;;;;;;4.35;3.85;;;19.30;99.90;;;;;;7375283;19;20356;-76
2022/06/07 06:04:11;;;;;;;4.18;3.78;;;19.60;99.90;;;;;;7379772;19;20341;-77
2022/06/07 06:06:42;;;;;;;4.10;3.35;;;19.80;99.90;;;;;;7378728;19;20360;-77
2022/06/07 06:11:55;;;;;;;3.75;3.45;;;19.90;99.90;;;;;;7276515;19;2004423;-77
2022/06/07 06:14:26;;;;;;;3.87;3.57;;;19.90;99.90;;;;;;7378994;19;20337;-76
2022/06/07 06:17:00;;;;;;;3.47;3.17;;;19.90;99.90;;;;;;7377995;19;20388;-77
2022/06/07 06:19:35;;;;;;;3.50;3.20;;;20.00;99.90;;;;;;7279162;19;2004365;-77
2022/06/07 06:22:02;;;;;;;4.15;3.75;;;19.90;99.90;;;;;;7377466;19;21313;-77
2022/06/07 06:24:30;;;;;;;4.38;3.10;;;20.00;99.90;;;;;;7378100;19;20333;-77
2022/06/07 06:26:57;;;;;;;3.75;3.03;;;20.10;99.90;;;;;;7378958;19;20320;-77
2022/06/07 06:29:25;;;;;;;3.03;2.83;;;20.30;99.90;;;;;;7380141;19;20349;-77
2022/06/07 06:31:53;;;;;;;3.75;3.35;;;20.50;99.90;;;;;;7376483;19;20424;-78
2022/06/07 06:34:19;;;;;;;3.20;3.00;;;20.50;99.90;;;;;;7374625;19;20348;-77
2022/06/07 06:36:47;;;;;;;3.22;2.92;;;20.50;99.90;;;;;;7375831;19;21405;-78
2022/06/07 06:39:14;;;;;;;3.40;3.10;;;20.60;99.90;;;;;;7379181;19;20392;-77
2022/06/07 06:41:46;;;;;;;2.95;2.65;;;20.70;99.90;;;;;;7371560;19;20344;-79
2022/06/07 06:44:13;;;;;;;2.78;2.58;;;21.00;99.90;;;;;;7377682;19;20853;-78
2022/06/07 06:46:44;;;;;;;3.13;2.83;;;21.10;99.90;;;;;;7378140;19;20325;-78
2022/06/07 06:49:13;;;;;;;2.80;2.60;;;21.20;99.90;;;;;;7377566;19;20403;-77
2022/06/07 06:51:41;;;;;;;3.15;2.85;;;21.30;99.90;;;;;;7376301;19;20867;-77
2022/06/07 06:54:09;;;;;;;3.40;3.10;;;21.40;99.90;;;;;;7379493;19;20340;-78
2022/06/07 06:56:42;;;;;;;3.20;3.00;;;21.50;99.90;;;;;;7377674;19;20347;-78
2022/06/07 06:59:15;;;;;;;2.53;2.33;;;21.40;99.90;;;;;;7379877;19;21263;-77
2022/06/07 07:01:44;;;;;;;2.80;2.60;;;21.50;99.90;;;;;;7373444;19;20430;-78
2022/06/07 07:04:15;;;;;;;3.03;2.77;;;21.50;99.90;;;;;;7378300;19;21081;-78
2022/06/07 07:06:41;;;;;;;3.15;2.85;;;21.30;99.90;;;;;;7377872;19;26874;-77
2022/06/07 07:09:08;;;;;;;3.30;3.00;;;21.30;99.90;;;;;;7375684;19;20345;-79
2022/06/07 07:11:38;;;;;;;3.28;2.97;;;20.60;99.90;;;;;;7377503;19;20700;-77
2022/06/07 07:14:06;;;;;;;3.15;2.85;;;20.60;99.90;;;;;;7379546;19;20454;-78
2022/06/07 07:16:34;;;;;;;2.90;2.70;;;20.50;99.90;;;;;;7377711;19;20931;-77
2022/06/07 07:19:00;;;;;;;3.50;3.20;;;20.30;99.90;;;;;;7378660;19;20336;-77
2022/06/07 07:21:29;;;;;;;3.40;3.10;;;20.30;99.90;;;;;;7376807;19;20718;-77
2022/06/07 07:23:57;;;;;;;2.63;2.38;;;20.20;99.90;;;;;;7376602;19;20348;-77
2022/06/07 07:26:24;;;;;;;3.40;3.10;;;20.20;99.90;;;;;;7376018;19;20324;-77
2022/06/07 07:28:50;;;;;;;2.72;2.53;;;20.30;99.90;;;;;;7378554;19;20328;-77
2022/06/07 07:31:30;;;;;;;3.13;2.85;;;20.20;99.90;;;;;;7375129;19;20347;-78
2022/06/07 07:33:56;;;;;;;2.72;2.30;;;20.20;99.90;;;;;;7375572;19;20344;-77
2022/06/07 07:36:22;;;;;;;2.55;2.35;;;20.40;99.90;;;;;;7373929;19;20337;-78
2022/06/07 07:38:48;;;;;;;3.58;2.30;;;20.30;99.90;;;;;;7378274;19;20313;-77
2022/06/07 07:41:23;;;;;;;3.95;3.60;;;20.30;99.90;;;;;;7373567;19;20340;-78
2022/06/07 07:43:50;;;;;;;3.10;2.83;;;20.20;99.90;;;;;;7373093;19;20360;-77
2022/06/07 07:46:17;;;;;;;3.10;2.90;;;19.90;99.90;;;;;;7374796;19;20846;-77
2022/06/07 07:48:43;;;;;;;3.35;3.08;;;19.80;99.90;;;;;;7375231;19;20357;-77
2022/06/07 07:51:11;;;;;;;3.03;2.83;;;19.60;99.90;;;;;;7374476;19;20357;-77
2022/06/07 07:53:37;;;;;;;2.58;2.40;;;19.80;99.90;;;;;;7374050;19;21120;-77
2022/06/07 07:56:05;;;;;;;3.43;3.03;;;19.80;99.90;;;;;;7378566;19;21064;-77
2022/06/07 07:58:31;;;;;;;3.22;3.00;;;20.00;99.90;;;;;;7376049;19;20333;-78
2022/06/07 08:00:58;;;;;;;3.20;2.90;;;19.90;99.90;;;;;;7373365;19;20351;-77
2022/06/07 08:03:26;;;;;;;3.03;2.83;;;19.90;99.90;;;;;;7376597;19;20334;-78
2022/06/07 08:05:56;;;;;;;3.33;3.10;;;20.00;99.90;;;;;;7373773;19;20352;-76
2022/06/07 08:08:22;;;;;;;3.17;2.97;;;19.80;99.90;;;;;;7375587;19;20320;-77
2022/06/07 08:10:48;;;;;;;3.17;2.80;;;19.90;99.90;;;;;;7374432;19;20778;-77
2022/06/07 08:13:13;;;;;;;3.37;3.07;;;20.00;99.90;;;;;;7376182;19;20344;-77
2022/06/07 08:15:40;;;;;;;5.07;2.80;;;20.00;99.90;;;;;;7375097;19;20352;-77
2022/06/07 08:18:05;;;;;;;3.67;3.20;;;20.00;99.90;;;;;;7377070;19;20345;-77
2022/06/07 08:20:35;;;;;;;4.30;3.20;;;19.80;99.90;;;;;;7375291;19;21195;-77
2022/06/07 08:23:03;;;;;;;3.30;2.70;;;19.60;99.90;;;;;;7372893;19;21270;-77
2022/06/07 08:25:29;;;;;;;2.90;2.70;;;19.60;99.90;;;;;;7375525;19;20304;-77
2022/06/07 08:27:55;;;;;;;3.20;2.90;;;19.70;99.90;;;;;;7375770;19;20340;-76
2022/06/07 08:30:20;;;;;;;3.38;3.08;;;19.70;99.90;;;;;;7374418;19;20317;-76
2022/06/07 08:32:46;;;;;;;5.53;3.83;;;19.70;99.90;;;;;;7372968;19;20427;-77
2022/06/07 08:38:02;;;;;;;3.85;3.30;;;19.40;99.90;;;;;;7375076;19;20340;-77
2022/06/07 08:40:34;;;;;;;3.28;2.97;;;19.30;99.90;;;;;;7377744;19;20332;-78
2022/06/07 08:43:03;;;;;;;3.25;2.92;;;19.30;99.90;;;;;;7371578;19;20343;-77
2022/06/07 08:45:34;;;;;;;3.88;3.00;;;19.50;99.90;;;;;;7374234;19;20332;-77
2022/06/07 08:48:02;;;;;;;3.50;3.20;;;19.60;99.90;;;;;;7376377;19;20345;-77
2022/06/07 08:50:39;;;;;;;4.00;3.65;;;19.50;99.90;;;;;;7374014;19;20419;-77
2022/06/07 08:53:25;;;;;;;3.70;3.40;;;19.50;99.90;;;;;;7371385;19;20899;-77
2022/06/07 08:55:53;;;;;;;4.22;3.80;;;19.30;99.90;;;;;;7374140;19;20881;-77
2022/06/07 08:58:27;;;;;;;4.15;3.75;;;19.40;99.90;;;;;;7374315;19;20332;-77
2022/06/07 09:00:57;;;;;;;3.53;3.22;;;19.40;99.90;;;;;;7377706;19;20332;-77
2022/06/07 09:03:57;;;;;;;3.88;3.58;;;19.50;99.90;;;;;;7380397;19;20340;-77
2022/06/07 09:06:38;;;;;;;3.67;3.30;;;19.40;99.90;;;;;;7278582;19;2004223;-77
2022/06/07 09:09:04;;;;;;;3.53;3.22;;;19.50;99.90;;;;;;7382161;19;20329;-77
2022/06/07 09:14:36;;;;;;;3.50;3.20;;;19.40;99.90;;;;;;7280547;19;2004354;-77
2022/06/07 09:17:04;;;;;;;3.25;2.95;;;19.40;99.90;;;;;;7379743;19;20315;-77
2022/06/07 09:19:30;;;;;;;2.85;2.58;;;19.10;99.90;;;;;;7381466;19;20333;-77
2022/06/07 09:21:58;;;;;;;3.40;3.10;;;19.10;99.90;;;;;;7378802;19;20332;-77
2022/06/07 09:24:37;;;;;;;2.80;2.60;;;19.00;99.90;;;;;;7382354;19;20317;-77
2022/06/07 09:27:18;;;;;;;3.00;2.80;;;19.00;99.90;;;;;;7276866;19;2019634;-77
2022/06/07 09:29:52;;;;;;;2.95;2.70;;;19.00;99.90;;;;;;7277348;19;2004436;-77
2022/06/07 09:32:18;;;;;;;2.53;2.33;;;18.90;99.90;;;;;;7379531;19;20456;-77
2022/06/07 09:35:00;;;;;;;2.70;2.15;;;18.90;99.90;;;;;;7379204;19;20364;-77
2022/06/07 09:37:31;;;;;;;1.88;1.75;;;18.90;99.90;;;;;;7380401;19;20353;-78
2022/06/07 09:40:20;;;;;;;2.03;1.92;;;18.90;99.90;;;;;;7380886;19;20328;-77
2022/06/07 09:43:12;;;;;;;2.40;2.10;;;19.00;99.90;;;;;;7274328;19;2004628;-78
2022/06/07 09:45:40;;;;;;;1.90;1.80;;;19.10;99.90;;;;;;7277941;19;2004442;-78
2022/06/07 09:48:25;;;;;;;1.77;1.67;;;19.10;99.90;;;;;;7379506;19;20381;-77
2022/06/07 09:50:58;;;;;;;2.30;2.10;;;19.20;99.90;;;;;;7376895;19;20348;-77
2022/06/07 09:53:24;;;;;;;1.80;1.70;;;19.30;99.90;;;;;;7378537;19;20325;-77
2022/06/07 09:56:18;;;;;;;1.77;1.67;;;19.40;99.90;;;;;;7379600;19;20368;-78
2022/06/07 09:58:47;;;;;;;1.50;1.40;;;19.50;99.90;;;;;;7278330;19;2004421;-77
2022/06/07 10:01:25;;;;;;;1.85;1.75;;;19.60;99.90;;;;;;7377143;19;20985;-77
2022/06/07 10:04:03;;;;;;;2.17;1.98;;;19.70;99.90;;;;;;7378640;19;20660;-77
2022/06/07 10:06:33;;;;;;;1.63;1.52;;;19.70;99.90;;;;;;7376941;19;20325;-78
2022/06/07 10:09:13;;;;;;;2.95;1.70;;;19.80;99.90;;;;;;7278589;19;2020632;-78
2022/06/07 10:11:49;;;;;;;1.73;1.60;;;19.80;99.90;;;;;;7274173;19;2004330;-78
2022/06/07 10:14:51;;;;;;;2.72;2.53;;;19.80;99.90;;;;;;7275559;19;2019999;-77
2022/06/07 10:17:20;;;;;;;1.83;1.53;;;19.80;99.90;;;;;;7278024;19;2004216;-78
2022/06/07 10:19:59;;;;;;;1.50;1.40;;;19.90;99.90;;;;;;7380086;19;20341;-78
2022/06/07 10:22:40;;;;;;;1.63;1.52;;;20.00;99.90;;;;;;7377690;19;21200;-79
2022/06/07 10:25:33;;;;;;;2.00;1.80;;;20.30;99.90;;;;;;7377926;19;20453;-78
2022/06/07 10:28:15;;;;;;;1.70;1.60;;;20.60;99.90;;;;;;7276316;19;2004342;-78
2022/06/07 10:30:57;;;;;;;2.13;1.80;;;20.80;99.90;;;;;;7379019;19;20329;-78
2022/06/07 10:33:31;;;;;;;1.70;1.60;;;20.90;99.90;;;;;;7378559;19;20381;-77
2022/06/07 10:36:12;;;;;;;1.70;1.60;;;20.90;99.90;;;;;;7376049;19;20710;-80
2022/06/07 10:39:05;;;;;;;2.00;1.90;;;21.00;99.90;;;;;;7382135;19;20328;-79
2022/06/07 10:41:38;;;;;;;2.60;1.70;;;21.00;99.90;;;;;;7376263;19;20348;-81
2022/06/07 10:44:19;;;;;;;1.90;1.80;;;21.00;99.90;;;;;;7377027;19;20348;-78
2022/06/07 10:46:45;;;;;;;1.98;1.85;;;21.00;99.90;;;;;;7377010;19;20303;-79
2022/06/07 10:49:23;;;;;;;1.90;1.80;;;21.10;99.90;;;;;;7378971;19;20745;-79
2022/06/07 10:52:20;;;;;;;1.80;1.70;;;21.30;99.90;;;;;;7374729;19;20369;-79
2022/06/07 10:55:16;;;;;;;1.73;1.63;;;21.40;99.90;;;;;;7275202;19;2004393;-78
2022/06/07 10:58:06;;;;;;;1.75;1.65;;;21.60;99.90;;;;;;7275642;19;2004291;-80
2022/06/07 11:00:45;;;;;;;2.50;1.80;;;21.80;99.90;;;;;;7275050;19;2006166;-79
2022/06/07 11:03:44;;;;;;;1.83;1.73;;;22.00;99.90;;;;;;7275227;19;2004435;-79
2022/06/07 11:09:35;;;;;;;2.00;1.80;;;22.10;99.90;;;;;;7173576;19;2005327;-84
2022/06/07 11:12:03;;;;;;;1.80;1.70;;;22.20;99.90;;;;;;7273725;19;2004376;-79
2022/06/07 11:14:51;;;;;;;4.50;3.70;;;22.10;99.90;;;;;;7376431;19;20361;-79
2022/06/07 11:17:38;;;;;;;2.20;2.00;;;22.00;99.90;;;;;;7274608;19;2019408;-79
2022/06/07 11:20:24;;;;;;;1.63;1.53;;;22.10;99.90;;;;;;7277154;19;2004553;-79
2022/06/07 11:22:56;;;;;;;2.35;1.90;;;22.30;99.90;;;;;;7372566;19;20345;-79
2022/06/07 11:25:39;;;;;;;1.73;1.63;;;22.20;99.90;;;;;;7376493;19;20332;-81
2022/06/07 11:28:18;;;;;;;2.00;1.90;;;22.30;99.90;;;;;;7375768;19;20337;-79
2022/06/07 11:30:53;;;;;;;2.05;1.90;;;22.40;99.90;;;;;;7376054;19;20324;-80
2022/06/07 11:33:38;;;;;;;1.98;1.85;;;22.60;99.90;;;;;;7376967;19;20430;-81
2022/06/07 11:36:12;;;;;;;2.22;2.03;;;22.80;99.90;;;;;;7377293;19;20332;-81
2022/06/07 11:38:53;;;;;;;1.88;1.77;;;23.00;99.90;;;;;;7379309;19;20309;-81
2022/06/07 11:41:37;;;;;;;1.90;1.80;;;23.10;99.90;;;;;;7377201;19;20347;-79
2022/06/07 11:44:10;;;;;;;2.17;1.98;;;23.20;99.90;;;;;;7279076;19;2004484;-80
2022/06/07 11:46:35;;;;;;;2.03;1.80;;;23.10;99.90;;;;;;7379872;19;20395;-80
2022/06/07 11:49:20;;;;;;;2.27;1.87;;;23.10;99.90;;;;;;7379567;19;20887;-79
2022/06/07 11:52:13;;;;;;;1.83;1.73;;;23.10;99.90;;;;;;7377678;19;20536;-81
2022/06/07 11:54:51;;;;;;;2.47;2.00;;;23.30;99.90;;;;;;7276092;19;2004170;-80
2022/06/07 11:57:32;;;;;;;1.90;1.80;;;23.30;99.90;;;;;;7375789;19;20316;-83
2022/06/07 12:00:18;;;;;;;2.00;1.90;;;23.20;99.90;;;;;;7377704;19;20452;-80
2022/06/07 12:03:07;;;;;;;2.65;1.85;;;23.20;99.90;;;;;;7273811;19;2004757;-80
2022/06/07 12:05:40;;;;;;;2.08;1.88;;;23.10;99.90;;;;;;7274163;19;2004533;-80
2022/06/07 12:08:44;;;;;;;2.13;1.63;;;23.20;99.90;;;;;;7371711;19;20400;-81
2022/06/07 12:11:20;;;;;;;2.00;1.90;;;23.20;99.90;;;;;;7268026;19;2004130;-85
2022/06/07 12:13:49;;;;;;;2.00;1.90;;;23.20;99.90;;;;;;7372207;19;20349;-82
2022/06/07 12:16:34;;;;;;;1.60;1.50;;;23.30;99.90;;;;;;7371125;19;20358;-80
2022/06/07 12:19:01;;;;;;;3.50;1.63;;;23.40;99.90;;;;;;7375057;19;20348;-79
2022/06/07 12:21:27;;;;;;;1.50;1.50;;;23.40;99.90;;;;;;7373212;19;20331;-80
2022/06/07 12:24:08;;;;;;;1.88;1.63;;;23.50;99.90;;;;;;7374695;19;20428;-80
2022/06/07 12:26:34;;;;;;;1.48;1.38;;;23.50;99.90;;;;;;7268918;19;2020052;-82
2022/06/07 12:29:21;;;;;;;1.60;1.50;;;23.60;99.90;;;;;;7378987;19;20345;-80
2022/06/07 12:31:52;;;;;;;1.87;1.77;;;23.70;99.90;;;;;;7374292;19;20328;-81
2022/06/07 12:34:26;;;;;;;2.20;2.00;;;23.60;99.90;;;;;;7380477;19;20340;-81
2022/06/07 12:37:21;;;;;;;2.10;1.90;;;23.50;99.90;;;;;;7380594;19;20431;-80
2022/06/07 12:39:56;;;;;;;2.07;1.63;;;23.00;99.90;;;;;;7276258;19;2004732;-79
2022/06/07 12:42:23;;;;;;;2.55;1.75;;;22.90;99.90;;;;;;7376148;19;20427;-80
2022/06/07 12:44:53;;;;;;;2.08;1.88;;;22.90;99.90;;;;;;7380395;19;20352;-80
2022/06/07 12:47:25;;;;;;;2.13;1.92;;;23.00;99.90;;;;;;7380029;19;20336;-83
2022/06/07 12:49:50;;;;;;;3.00;1.90;;;23.00;99.90;;;;;;7382309;19;20348;-80
2022/06/07 12:52:19;;;;;;;2.60;1.90;;;23.00;99.90;;;;;;7377574;19;20416;-79
2022/06/07 12:54:49;;;;;;;1.90;1.80;;;23.00;99.90;;;;;;7383599;19;20748;-79
2022/06/07 12:57:20;;;;;;;2.00;1.90;;;23.00;99.90;;;;;;7380167;19;20351;-83
2022/06/07 12:59:54;;;;;;;2.03;1.83;;;23.30;99.90;;;;;;7380327;19;20352;-80
2022/06/07 13:02:26;;;;;;;2.00;1.90;;;23.30;99.90;;;;;;7377709;19;20308;-80
2022/06/07 13:04:59;;;;;;;1.92;1.83;;;23.00;99.90;;;;;;7277898;19;2020414;-81
2022/06/07 13:07:41;;;;;;;1.75;1.55;;;23.10;99.90;;;;;;7380178;19;20353;-78
2022/06/07 13:10:11;;;;;;;1.70;1.60;;;23.10;99.90;;;;;;7279937;19;2005177;-79
2022/06/07 13:12:42;;;;;;;1.90;1.80;;;23.20;99.90;;;;;;7377078;19;20370;-81
2022/06/07 13:15:23;;;;;;;2.08;1.85;;;23.30;99.90;;;;;;7382287;19;21035;-79
2022/06/07 13:18:00;;;;;;;1.83;1.73;;;23.30;99.90;;;;;;7379129;19;20386;-80
2022/06/07 13:20:33;;;;;;;2.00;1.90;;;23.30;99.90;;;;;;7381228;19;20348;-79
2022/06/07 13:22:59;;;;;;;2.38;1.75;;;23.40;99.90;;;;;;7378292;19;20398;-80
2022/06/07 13:25:29;;;;;;;1.73;1.63;;;23.50;99.90;;;;;;7380058;19;20340;-80